Last 7 Days

Abernathy 1

Hourly Data | America/Los_Angeles
as of 8/11/20 6:44 AM PDT
Date & Time Temp (°F) RH (%) Dew Pt (°F) Wind Spd (mph) Wind Dir (°) Wind Gust (mph) Latest Rain (In) Daily Rain (In) Daily Min Temp (°F) Daily Max Temp (°F)
8/11/20 - 0600 58.9 87 55.0 9.9 W | 260 17.9 0.00 0.00 58.7 61.5
8/11/20 - 0500 59.1 87 55.1 10.3 W | 260 18.3 0.00 0.00 59.0 61.5
8/11/20 - 0400 59.4 86 55.3 11.5 WSW | 254 19.0 0.00 0.00 59.2 61.5
8/11/20 - 0300 60.1 84 55.3 9.6 W | 260 20.2 0.00 0.00 59.8 61.5
8/11/20 - 0200 60.8 82 55.2 10.9 WSW | 255 18.3 0.00 0.00 60.4 61.5
8/11/20 - 0100 62.5 76 54.9 10.7 W | 259 18.2 0.00 0.00 59.5 85.8
8/11/20 - 0000 64.0 71 54.5 11.7 WSW | 258 20.8 0.00 0.00 59.5 85.8
8/10/20 - 2300 65.5 67 54.3 10.7 WSW | 248 18.9 0.00 0.00 59.5 85.8
8/10/20 - 2200 66.4 66 54.6 9.4 WSW | 240 18.4 0.00 0.00 59.5 85.8
8/10/20 - 2100 67.8 65 55.6 8.9 SW | 234 17.8 0.00 0.00 59.5 85.8
8/10/20 - 2000 71.2 62 57.4 10.8 WSW | 244 18.2 0.00 0.00 59.5 85.8
8/10/20 - 1900 76.4 52 57.5 11.5 WSW | 246 19.2 0.00 0.00 59.5 85.8
8/10/20 - 1800 79.7 47 57.7 13.8 WSW | 251 21.4 0.00 0.00 59.5 85.8
8/10/20 - 1700 82.4 43 57.6 13.9 WSW | 250 22.2 0.00 0.00 59.5 85.8
8/10/20 - 1600 83.8 42 58.3 13.4 WSW | 248 21.5 0.00 0.00 59.5 85.8
8/10/20 - 1500 85.0 43 59.7 11.7 WSW | 244 20.3 0.00 0.00 59.5 85.8
8/10/20 - 1400 84.7 43 60.0 11.4 WSW | 245 17.9 0.00 0.00 59.5 85.6
8/10/20 - 1300 82.2 46 59.4 11.5 WSW | 247 18.5 0.00 0.00 59.5 84.2
8/10/20 - 1200 78.2 51 58.4 11.0 WSW | 245 18.4 0.00 0.00 59.5 80.4
8/10/20 - 1100 74.3 55 57.4 10.7 WSW | 242 17.2 0.00 0.00 59.5 76.3
8/10/20 - 1000 71.6 59 56.6 8.9 SW | 234 16.2 0.00 0.00 59.5 73.2
8/10/20 - 0900 66.9 66 55.4 8.7 WSW | 238 15.5 0.00 0.00 59.5 70.3
8/10/20 - 0800 62.3 75 54.4 8.7 WSW | 238 15.0 0.00 0.00 59.5 64.3
8/10/20 - 0700 60.5 77 53.4 9.5 WSW | 237 14.9 0.00 0.00 59.5 61.4
8/10/20 - 0600 59.9 78 53.1 9.8 WSW | 242 17.0 0.00 0.00 59.5 61.4
8/10/20 - 0500 60.1 80 53.8 11.0 WSW | 239 18.7 0.00 0.00 59.8 61.4
8/10/20 - 0400 60.6 80 54.4 10.8 SW | 236 21.0 0.00 0.00 60.4 61.4
8/10/20 - 0300 60.5 84 55.7 10.9 WSW | 239 17.9 0.00 0.00 60.4 61.4
8/10/20 - 0200 61.0 84 56.0 12.1 WSW | 239 19.6 0.00 0.00 60.5 61.4
8/10/20 - 0100 62.0 79 55.6 12.1 SW | 236 20.0 0.00 0.00 60.0 92.3
8/10/20 - 0000 64.7 71 55.2 9.2 SW | 235 17.6 0.00 0.00 60.0 92.3
8/9/20 - 2300 66.3 67 55.0 7.5 WSW | 239 13.7 0.00 0.00 60.0 92.3
8/9/20 - 2200 67.8 64 55.0 11.4 WSW | 240 16.9 0.00 0.00 60.0 92.3
8/9/20 - 2100 70.6 56 54.4 8.9 WSW | 243 14.6 0.00 0.00 60.0 92.3
8/9/20 - 2000 76.0 48 54.6 10.8 WSW | 251 18.6 0.00 0.00 60.0 92.3
8/9/20 - 1900 82.9 39 55.7 10.6 WSW | 242 17.4 0.00 0.00 60.0 92.3
8/9/20 - 1800 87.5 37 57.8 9.8 WSW | 242 16.0 0.00 0.00 60.0 92.3
8/9/20 - 1700 89.8 33 56.7 10.4 WSW | 246 17.8 0.00 0.00 60.0 92.3
8/9/20 - 1600 91.6 33 58.6 10.0 WSW | 245 16.7 0.00 0.00 60.0 92.3
8/9/20 - 1500 91.5 32 57.4 8.9 WSW | 244 14.2 0.00 0.00 60.0 92.0
8/9/20 - 1400 89.6 32 56.0 7.8 WSW | 249 14.1 0.00 0.00 60.0 91.2
8/9/20 - 1300 86.0 34 54.5 8.1 WSW | 245 14.0 0.00 0.00 60.0 88.0
8/9/20 - 1200 82.5 38 54.4 8.7 WSW | 247 13.6 0.00 0.00 60.0 84.1
8/9/20 - 1100 78.5 46 56.2 8.1 WSW | 244 13.7 0.00 0.00 60.0 80.7
8/9/20 - 1000 74.9 54 57.2 7.3 WSW | 242 12.2 0.00 0.00 60.0 76.8
8/9/20 - 0900 69.8 66 57.8 6.0 WSW | 237 12.4 0.00 0.00 60.0 72.5
8/9/20 - 0800 63.2 79 56.5 5.0 WSW | 239 9.4 0.00 0.00 60.0 66.0
8/9/20 - 0700 60.3 83 55.0 6.2 SW | 236 10.0 0.00 0.00 60.0 63.4
8/9/20 - 0600 60.9 79 54.3 6.4 SW | 231 11.0 0.00 0.00 60.4 63.4
8/9/20 - 0500 62.5 76 54.7 6.9 WSW | 237 12.8 0.00 0.00 61.2 63.4
8/9/20 - 0400 63.2 74 54.7 6.3 SW | 230 12.0 0.00 0.00 61.6 63.4
8/9/20 - 0300 62.1 76 54.6 8.0 WSW | 241 13.8 0.00 0.00 61.6 62.8
8/9/20 - 0200 61.8 80 55.6 9.4 WSW | 239 15.9 0.00 0.00 61.6 62.1
8/9/20 - 0100 62.5 79 55.8 9.9 WSW | 241 19.5 0.00 0.00 58.2 86.0
8/9/20 - 0000 63.0 78 56.2 10.6 WSW | 244 18.7 0.00 0.00 58.2 86.0
8/8/20 - 2300 63.6 77 56.3 9.2 WSW | 244 15.9 0.00 0.00 58.2 86.0
8/8/20 - 2200 65.9 71 56.2 8.5 WSW | 244 17.2 0.00 0.00 58.2 86.0
8/8/20 - 2100 68.2 66 56.5 9.9 WSW | 243 16.7 0.00 0.00 58.2 86.0
8/8/20 - 2000 73.6 56 57.0 10.4 WSW | 244 18.4 0.00 0.00 58.2 86.0
8/8/20 - 1900 79.5 48 58.0 9.6 WSW | 253 16.9 0.00 0.00 58.2 86.0
8/8/20 - 1800 82.9 45 59.7 10.5 WSW | 248 17.6 0.00 0.00 58.2 86.0
8/8/20 - 1700 84.2 45 60.6 10.7 WSW | 243 18.5 0.00 0.00 58.2 86.0
8/8/20 - 1600 85.2 44 60.7 10.7 WSW | 242 17.3 0.00 0.00 58.2 86.0
8/8/20 - 1500 85.0 44 60.9 10.7 WSW | 242 17.5 0.00 0.00 58.2 85.6
8/8/20 - 1400 83.5 45 60.0 9.8 WSW | 246 17.0 0.00 0.00 58.2 85.3
8/8/20 - 1300 80.8 48 59.1 9.7 WSW | 244 16.0 0.00 0.00 58.2 81.8
8/8/20 - 1200 76.9 53 58.5 9.5 WSW | 247 15.8 0.00 0.00 58.2 79.0
8/8/20 - 1100 73.6 59 58.4 9.2 WSW | 247 15.4 0.00 0.00 58.2 75.0
8/8/20 - 1000 69.7 65 57.5 8.8 WSW | 248 14.0 0.00 0.00 58.2 71.7
8/8/20 - 0900 65.7 73 56.8 7.9 WSW | 249 13.4 0.00 0.00 58.2 68.0
8/8/20 - 0800 61.2 82 55.8 7.1 WSW | 243 12.1 0.00 0.00 58.2 63.4
8/8/20 - 0700 59.1 85 54.7 6.7 WSW | 246 12.9 0.00 0.00 58.2 60.4
8/8/20 - 0600 58.7 86 54.6 7.8 WSW | 245 12.6 0.00 0.00 58.2 60.4
8/8/20 - 0500 59.0 85 54.6 8.0 WSW | 240 13.8 0.00 0.00 58.2 60.4
8/8/20 - 0400 58.8 86 54.7 8.8 WSW | 241 15.9 0.00 0.00 58.2 60.4
8/8/20 - 0300 58.4 88 54.7 10.7 WSW | 244 17.2 0.00 0.00 58.2 60.4
8/8/20 - 0200 59.7 85 55.1 10.9 WSW | 239 19.2 0.00 0.00 58.8 60.4
8/8/20 - 0100 61.5 82 55.8 11.2 WSW | 241 18.6 0.00 0.00 56.6 87.0
8/8/20 - 0000 63.6 78 56.5 9.7 WSW | 238 16.8 0.00 0.00 56.6 87.0
8/7/20 - 2300 65.6 73 56.9 8.7 WSW | 242 13.8 0.00 0.00 56.6 87.0
8/7/20 - 2200 67.4 68 56.7 8.6 WSW | 245 13.3 0.00 0.00 56.6 87.0
8/7/20 - 2100 70.4 61 56.3 8.3 WSW | 255 13.0 0.00 0.00 56.6 87.0
8/7/20 - 2000 74.7 53 56.5 8.6 W | 260 15.3 0.00 0.00 56.6 87.0
8/7/20 - 1900 80.1 47 57.9 9.6 WSW | 253 16.6 0.00 0.00 56.6 87.0
8/7/20 - 1800 83.0 43 58.4 10.6 WSW | 252 18.1 0.00 0.00 56.6 87.0
8/7/20 - 1700 86.1 40 59.1 9.0 WSW | 250 16.6 0.00 0.00 56.6 87.0
8/7/20 - 1600 86.5 41 59.9 7.2 WSW | 250 12.2 0.00 0.00 56.6 87.0
8/7/20 - 1500 85.2 43 60.2 6.2 WSW | 246 13.5 0.00 0.00 56.6 86.4
8/7/20 - 1400 82.9 46 60.1 6.8 WSW | 247 12.3 0.00 0.00 56.6 83.8
8/7/20 - 1300 80.0 50 59.6 5.8 WSW | 238 11.5 0.00 0.00 56.6 82.3
8/7/20 - 1200 76.2 55 58.7 7.3 WSW | 241 13.5 0.00 0.00 56.6 78.3
8/7/20 - 1100 71.6 61 57.6 8.2 WSW | 245 15.4 0.00 0.00 56.6 73.6
8/7/20 - 1000 67.6 68 56.6 7.5 WSW | 244 13.4 0.00 0.00 56.6 69.9
8/7/20 - 0900 63.0 76 55.5 7.5 WSW | 246 13.5 0.00 0.00 56.6 65.2
8/7/20 - 0800 59.1 85 54.5 6.4 WSW | 251 12.6 0.00 0.00 56.6 60.8
8/7/20 - 0700 56.8 88 53.4 5.6 WSW | 249 10.9 0.00 0.00 56.6 60.0
8/7/20 - 0600 57.0 87 53.3 6.7 WSW | 253 12.6 0.00 0.00 56.6 60.0
8/7/20 - 0500 57.6 86 53.6 7.3 WSW | 256 12.7 0.00 0.00 57.3 60.0
8/7/20 - 0400 58.4 86 54.0 8.2 WSW | 256 15.5 0.00 0.00 58.0 60.0
8/7/20 - 0300 59.0 85 54.5 9.4 WSW | 254 17.2 0.00 0.00 58.8 60.0
8/7/20 - 0200 59.6 83 54.6 10.0 WSW | 252 17.0 0.00 0.00 59.1 60.0
8/7/20 - 0100 60.5 81 54.8 9.5 WSW | 247 20.0 0.00 0.00 58.6 84.0
8/7/20 - 0000 62.4 78 55.4 9.7 WSW | 243 16.2 0.00 0.00 58.6 84.0
8/6/20 - 2300 64.6 68 54.0 8.5 WSW | 240 17.0 0.00 0.00 58.6 84.0
8/6/20 - 2200 66.8 64 54.3 10.3 WSW | 248 17.1 0.00 0.00 58.6 84.0
8/6/20 - 2100 69.9 57 53.9 8.2 WSW | 256 16.1 0.00 0.00 58.6 84.0
8/6/20 - 2000 74.8 48 54.1 11.4 W | 262 21.2 0.00 0.00 58.6 84.0
8/6/20 - 1900 78.5 47 56.4 13.6 WSW | 254 24.5 0.00 0.00 58.6 84.0
8/6/20 - 1800 81.6 45 58.1 12.0 WSW | 254 20.4 0.00 0.00 58.6 84.0
8/6/20 - 1700 82.9 44 58.5 11.5 WSW | 254 19.6 0.00 0.00 58.6 84.0
8/6/20 - 1600 83.6 43 58.9 11.1 WSW | 256 20.8 0.00 0.00 58.6 84.0
8/6/20 - 1500 83.1 46 60.0 10.6 WSW | 250 17.8 0.00 0.00 58.6 83.7
8/6/20 - 1400 81.3 49 60.2 8.5 WSW | 243 15.2 0.00 0.00 58.6 82.7
8/6/20 - 1300 78.0 54 59.9 5.9 WSW | 241 14.1 0.00 0.00 58.6 79.8
8/6/20 - 1200 73.1 60 58.5 6.7 WSW | 252 12.7 0.00 0.00 58.6 75.8
8/6/20 - 1100 68.2 68 57.4 8.2 WSW | 256 13.6 0.00 0.00 58.6 70.5
8/6/20 - 1000 64.9 75 56.8 7.8 WSW | 254 13.5 0.00 0.00 58.6 66.8
8/6/20 - 0900 61.4 82 56.0 6.1 WSW | 248 11.2 0.00 0.00 58.6 62.7
8/6/20 - 0800 59.5 86 55.3 4.8 W | 260 8.4 0.00 0.00 58.6 60.3
8/6/20 - 0700 58.7 87 54.8 5.4 WSW | 258 8.6 0.00 0.00 58.6 60.2
8/6/20 - 0600 58.9 86 54.9 5.7 WSW | 255 11.1 0.00 0.00 58.7 60.2
8/6/20 - 0500 59.2 86 55.1 6.6 WSW | 256 11.3 0.00 0.00 59.0 60.2
8/6/20 - 0400 59.4 85 54.9 6.6 WSW | 258 12.9 0.00 0.00 59.3 60.2
8/6/20 - 0300 59.6 83 54.5 6.3 WSW | 258 11.4 0.00 0.00 59.4 60.2
8/6/20 - 0200 60.0 82 54.5 6.3 WSW | 256 10.9 0.00 0.00 59.8 60.2
8/6/20 - 0100 60.3 81 54.5 7.3 WSW | 252 16.3 0.00 0.00 57.9 78.0
8/6/20 - 0000 60.6 80 54.5 6.9 WSW | 241 13.3 0.00 0.00 57.9 78.0
8/5/20 - 2300 60.5 81 54.8 6.3 WSW | 254 11.7 0.00 0.00 57.9 78.0
8/5/20 - 2200 60.7 81 54.7 6.8 WSW | 254 14.2 0.00 0.00 57.9 78.0
8/5/20 - 2100 62.5 77 55.1 7.5 WSW | 247 14.4 0.00 0.00 57.9 78.0
8/5/20 - 2000 67.2 67 55.8 9.9 WSW | 242 17.8 0.00 0.00 57.9 78.0
8/5/20 - 1900 71.8 59 56.7 10.4 WSW | 239 18.8 0.00 0.00 57.9 78.0
8/5/20 - 1800 73.9 56 57.2 11.6 WSW | 239 20.2 0.00 0.00 57.9 78.0
8/5/20 - 1700 75.8 54 57.7 11.0 WSW | 242 19.7 0.00 0.00 57.9 78.0
8/5/20 - 1600 77.0 52 58.0 10.2 WSW | 248 16.5 0.00 0.00 57.9 78.0
8/5/20 - 1500 77.2 52 58.2 9.3 WSW | 248 17.0 0.00 0.00 57.9 78.0
8/5/20 - 1400 75.1 56 58.3 8.5 WSW | 238 16.8 0.00 0.00 57.9 76.4
8/5/20 - 1300 72.7 59 57.8 9.2 WSW | 241 15.5 0.00 0.00 57.9 73.9
8/5/20 - 1200 69.0 66 57.3 8.7 SW | 232 16.4 0.00 0.00 57.9 71.0
8/5/20 - 1100 64.9 74 56.5 7.7 WSW | 240 13.4 0.00 0.00 57.9 67.5
8/5/20 - 1000 62.4 79 55.7 7.2 WSW | 251 15.6 0.00 0.00 57.9 63.3
8/5/20 - 0900 60.7 81 54.9 7.7 W | 259 14.4 0.00 0.00 57.9 61.5
8/5/20 - 0800 58.8 84 54.2 6.1 W | 264 13.3 0.00 0.00 57.9 59.9
8/5/20 - 0700 58.2 86 54.0 7.4 W | 260 12.5 0.00 0.00 57.9 59.9
8/5/20 - 0600 58.7 86 54.4 7.4 W | 260 15.1 0.00 0.00 58.6 59.9
8/5/20 - 0500 59.0 86 54.7 7.5 WSW | 257 15.8 0.00 0.00 58.6 59.9
8/5/20 - 0400 59.4 86 55.1 5.7 WSW | 256 11.7 0.00 0.00 59.1 59.9
8/5/20 - 0300 59.7 86 55.6 6.7 WSW | 239 13.6 0.00 0.00 59.1 59.9
8/5/20 - 0200 59.4 87 55.4 6.9 WSW | 243 16.1 0.00 0.00 59.1 59.7
8/5/20 - 0100 60.0 86 55.8 10.4 WSW | 248 17.8 0.00 0.00 57.9 82.3
8/5/20 - 0000 60.1 86 55.8 10.8 WSW | 245 19.2 0.00 0.00 57.9 82.3
8/4/20 - 2300 61.2 83 55.9 9.0 WSW | 238 16.8 0.00 0.00 57.9 82.3
8/4/20 - 2200 62.8 79 56.2 8.8 WSW | 242 16.1 0.00 0.00 57.9 82.3
8/4/20 - 2100 65.2 74 56.7 8.0 WSW | 241 16.1 0.00 0.00 57.9 82.3
8/4/20 - 2000 71.3 62 57.4 9.3 WSW | 242 16.6 0.00 0.00 57.9 82.3
8/4/20 - 1900 76.4 52 57.7 12.9 WSW | 252 23.4 0.00 0.00 57.9 82.3
8/4/20 - 1800 79.0 49 58.4 13.0 WSW | 256 20.6 0.00 0.00 57.9 82.3
8/4/20 - 1700 80.9 47 59.0 12.4 WSW | 253 20.7 0.00 0.00 57.9 82.3
8/4/20 - 1600 81.6 47 59.6 12.8 WSW | 248 20.5 0.00 0.00 57.9 82.3
8/4/20 - 1500 81.8 47 59.9 11.6 WSW | 245 20.6 0.00 0.00 57.9 82.3
8/4/20 - 1400 79.8 50 59.8 11.2 WSW | 243 17.0 0.00 0.00 57.9 81.5
8/4/20 - 1300 77.2 54 59.1 10.9 WSW | 247 18.1 0.00 0.00 57.9 78.8
8/4/20 - 1200 74.8 58 58.9 10.6 WSW | 253 17.8 0.00 0.00 57.9 76.0
8/4/20 - 1100 71.3 63 58.3 10.1 WSW | 247 16.3 0.00 0.00 57.9 73.2
8/4/20 - 1000 67.6 70 57.3 9.9 WSW | 245 16.1 0.00 0.00 57.9 69.4
8/4/20 - 0900 63.8 77 56.6 9.8 WSW | 247 16.4 0.00 0.00 57.9 66.0
8/4/20 - 0800 60.3 85 55.9 10.0 WSW | 251 18.2 0.00 0.00 57.9 61.8
8/4/20 - 0700 58.2 89 55.0 9.1 WSW | 247 15.8 0.00 0.00 57.9 60.9
Max 91.6 89 60.9 13.9 - 24.5 0.00 0.00 61.6 92.3
Avg 69.4 66 56.4 9.1 - 16.1 0.00 - - -
Min 56.8 32 53.1 4.8 - 8.4 0.00 0.00 56.6 59.7
Total - - - - - - 0.00 - - -
Tip: Bookmark this page for easy future reference